Time;durP1;ratioP1;P1;durP2;ratioP2;P2;SDS_P1;SDS_P2;PMS_P1;PMS_P2;Temp;Humidity;BMP_temperature;BMP_pressure;BME280_temperature;BME280_humidity;BME280_pressure;Samples;Min_cycle;Max_cycle;Signal;HPM_P1;HPM_P2
2022/07/28 00:02:19;;;;;;;37.97;24.90;;;;;;;30.16;80.23;97949.75;5059291;28;20687;-74
2022/07/28 00:05:09;;;;;;;35.03;24.00;;;;;;;30.38;79.14;97955.75;5050973;28;20076;-75
2022/07/28 00:07:52;;;;;;;43.47;26.25;;;;;;;29.92;81.13;97961.06;5068752;28;20055;-75
2022/07/28 00:10:40;;;;;;;38.15;25.92;;;;;;;29.98;80.71;97970.69;5038137;28;20055;-76
2022/07/28 00:13:22;;;;;;;34.22;23.60;;;;;;;30.10;80.55;97972.53;5051098;28;20052;-75
2022/07/28 00:16:11;;;;;;;38.30;25.75;;;;;;;30.03;80.68;97973.97;5052863;28;20064;-78
2022/07/28 00:18:53;;;;;;;35.40;23.85;;;;;;;30.46;79.06;97979.66;5068483;28;20045;-76
2022/07/28 00:21:42;;;;;;;38.17;26.50;;;;;;;30.18;80.12;97982.59;5072413;28;20135;-76
2022/07/28 00:24:24;;;;;;;33.90;24.05;;;;;;;30.34;79.94;97965.94;5072341;28;20044;-76
2022/07/28 00:27:15;;;;;;;37.33;25.73;;;;;;;30.06;80.64;97972.47;5054004;28;20535;-76
2022/07/28 00:29:59;;;;;;;39.55;27.38;;;;;;;30.31;79.70;97967.47;5036693;28;20042;-75
2022/07/28 00:32:48;;;;;;;36.35;25.40;;;;;;;30.29;80.04;97974.53;5046958;28;20041;-75
2022/07/28 00:35:37;;;;;;;38.00;25.88;;;;;;;30.13;80.91;97978.13;5047530;28;20142;-78
2022/07/28 00:38:28;;;;;;;37.03;24.90;;;;;;;30.22;80.30;97981.50;5046660;28;20141;-75
2022/07/28 00:41:21;;;;;;;38.75;26.67;;;;;;;29.69;82.39;97975.53;5046924;28;20114;-75
2022/07/28 00:44:03;;;;;;;40.20;25.98;;;;;;;30.06;81.42;97981.56;5030787;28;20069;-75
2022/07/28 00:46:59;;;;;;;40.33;27.17;;;;;;;30.06;81.11;97986.31;5017123;28;20114;-76
2022/07/28 00:49:35;;;;;;;42.50;27.42;;;;;;;29.68;82.35;97982.22;5031637;28;20044;-77
2022/07/28 00:52:30;;;;;;;42.25;27.25;;;;;;;30.17;81.19;97992.06;5046626;28;20057;-75
2022/07/28 00:55:06;;;;;;;38.22;25.83;;;;;;;30.21;80.96;97998.47;5046909;28;20056;-78
2022/07/28 00:58:01;;;;;;;39.15;26.67;;;;;;;30.48;79.66;97998.66;5030596;28;20430;-76
2022/07/28 01:00:50;;;;;;;37.25;25.15;;;;;;;30.57;79.84;98002.84;5012563;28;20107;-76
2022/07/28 01:03:43;;;;;;;36.60;24.90;;;;;;;30.58;79.58;98003.63;5045987;28;20045;-76
2022/07/28 01:06:34;;;;;;;40.75;26.13;;;;;;;30.49;80.00;98014.91;5028961;28;20060;-76
2022/07/28 01:09:47;;;;;;;39.53;25.67;;;;;;;30.66;79.25;98012.88;5045861;28;20148;-76
2022/07/28 01:12:36;;;;;;;41.47;26.52;;;;;;;30.78;78.76;98023.81;5028781;28;20037;-74
2022/07/28 01:15:57;;;;;;;40.65;28.45;;;;;;;30.78;79.28;98026.56;5021898;28;20508;-75
2022/07/28 01:18:47;;;;;;;;;;;;;;;30.57;79.61;98030.53;5011036;28;20045;-75
2022/07/28 01:21:41;;;;;;;42.88;27.60;;;;;;;30.06;81.38;98028.59;5028637;28;19925;-75
2022/07/28 01:24:39;;;;;;;41.55;27.42;;;;;;;30.38;80.42;98022.19;5029244;28;20040;-76
2022/07/28 01:27:38;;;;;;;46.25;28.23;;;;;;;30.50;80.23;98033.16;5033999;28;20048;-76
2022/07/28 01:30:40;;;;;;;44.28;27.58;;;;;;;30.41;79.87;98041.66;5033819;28;20057;-76
2022/07/28 01:33:32;;;;;;;43.95;28.60;;;;;;;30.28;81.11;98037.38;5026438;28;20658;-76
2022/07/28 01:36:27;;;;;;;43.03;28.33;;;;;;;30.61;79.88;98036.94;5011364;28;20049;-76
2022/07/28 01:39:09;;;;;;;45.92;30.35;;;;;;;30.64;79.93;98038.97;5010188;28;20485;-77
2022/07/28 01:42:01;;;;;;;48.72;30.25;;;;;;;30.53;80.36;98056.53;5011788;28;20103;-77
2022/07/28 01:44:54;;;;;;;49.03;31.20;;;;;;;30.26;81.00;98054.34;5046082;28;20044;-77
2022/07/28 01:47:45;;;;;;;51.78;31.30;;;;;;;30.77;79.47;98061.78;5046867;28;20124;-77
2022/07/28 01:50:30;;;;;;;52.45;32.80;;;;;;;30.70;80.31;98067.19;5046371;28;20053;-74
2022/07/28 01:53:20;;;;;;;53.15;32.20;;;;;;;30.15;81.94;98075.47;5046351;28;20076;-76
2022/07/28 01:56:05;;;;;;;50.78;32.25;;;;;;;30.56;80.36;98087.06;5046872;28;20055;-77
2022/07/28 01:59:05;;;;;;;51.05;33.40;;;;;;;30.64;80.25;98083.28;5044573;28;20280;-76
2022/07/28 02:01:43;;;;;;;54.75;33.13;;;;;;;30.58;79.92;98087.50;5049058;28;20053;-75
2022/07/28 02:04:35;;;;;;;49.78;31.60;;;;;;;30.42;81.02;98095.03;5046325;28;20065;-76
2022/07/28 02:07:26;;;;;;;55.38;33.28;;;;;;;30.58;80.09;98098.59;5046739;28;20107;-76
2022/07/28 02:10:10;;;;;;;53.53;33.13;;;;;;;30.57;80.63;98107.25;5045864;28;20079;-75
2022/07/28 02:13:00;;;;;;;53.45;33.17;;;;;;;30.62;79.79;98113.31;5046753;28;20048;-76
2022/07/28 02:15:49;;;;;;;56.65;33.25;;;;;;;30.37;80.94;98121.06;5049208;28;20110;-76
2022/07/28 02:18:32;;;;;;;45.47;30.10;;;;;;;30.73;79.98;98118.31;5050378;28;20045;-77
2022/07/28 02:21:24;;;;;;;55.83;33.55;;;;;;;30.81;79.56;98111.75;5049777;28;20072;-78
2022/07/28 02:24:06;;;;;;;53.17;33.97;;;;;;;30.80;79.73;98115.66;5049745;28;20055;-77
2022/07/28 02:27:05;;;;;;;59.13;32.72;;;;;;;30.79;79.19;98106.56;5030377;28;20045;-77
2022/07/28 02:30:14;;;;;;;50.00;33.38;;;;;;;31.03;79.06;98102.75;5037964;28;20522;-76
2022/07/28 02:33:10;;;;;;;55.17;34.67;;;;;;;30.86;79.39;98110.63;5050924;28;20106;-76
2022/07/28 02:36:19;;;;;;;55.88;33.55;;;;;;;31.14;78.78;98108.47;5050102;28;20076;-77
2022/07/28 02:39:16;;;;;;;51.75;32.17;;;;;;;31.39;77.77;98097.91;5028463;28;20134;-75
2022/07/28 02:42:10;;;;;;;56.03;33.00;;;;;;;31.06;78.75;98117.03;5030799;28;20049;-77
2022/07/28 02:45:03;;;;;;;55.83;34.40;;;;;;;31.20;78.45;98109.81;5011760;28;20115;-76
2022/07/28 02:47:53;;;;;;;63.30;35.58;;;;;;;31.11;78.53;98108.41;5012322;28;20520;-76
2022/07/28 02:50:44;;;;;;;56.47;34.47;;;;;;;31.01;78.76;98116.16;5014664;28;20107;-76
2022/07/28 02:53:35;;;;;;;55.30;33.72;;;;;;;31.05;79.07;98109.88;5022036;28;20081;-77
2022/07/28 02:56:31;;;;;;;55.95;33.17;;;;;;;30.78;79.17;98118.81;5009798;28;20065;-76
2022/07/28 02:59:21;;;;;;;52.28;33.13;;;;;;;30.88;78.84;98114.66;5020500;28;20063;-75
2022/07/28 03:02:12;;;;;;;53.85;33.30;;;;;;;30.91;79.05;98116.72;5044302;28;20312;-74
2022/07/28 03:04:55;;;;;;;55.80;33.55;;;;;;;31.08;78.25;98103.59;5018914;28;20445;-76
2022/07/28 03:07:58;;;;;;;54.63;32.83;;;;;;;31.14;78.63;98102.13;5024435;28;20179;-75
2022/07/28 03:10:34;;;;;;;49.42;31.55;;;;;;;31.27;78.35;98089.72;5049361;28;20136;-75
2022/07/28 03:13:22;;;;;;;53.83;32.50;;;;;;;31.62;75.69;98088.78;5031212;28;20069;-76
2022/07/28 03:16:04;;;;;;;55.67;33.90;;;;;;;31.60;76.51;98091.13;5049001;28;20061;-76
2022/07/28 03:18:59;;;;;;;47.10;31.20;;;;;;;32.18;74.91;98085.41;5049763;28;20059;-76
2022/07/28 03:21:36;;;;;;;52.17;31.00;;;;;;;32.28;74.47;98080.38;5048587;28;20064;-76
2022/07/28 03:24:35;;;;;;;52.15;32.13;;;;;;;32.14;74.62;98075.41;5041817;28;20048;-76
2022/07/28 03:27:26;;;;;;;52.25;30.88;;;;;;;31.82;74.96;98091.53;5032110;28;20666;-74
2022/07/28 03:30:24;;;;;;;47.08;31.15;;;;;;;31.90;75.31;98093.25;5031742;28;20059;-75
2022/07/28 03:33:02;;;;;;;53.35;30.92;;;;;;;31.88;74.84;98110.25;5045888;28;20527;-76
2022/07/28 03:35:52;;;;;;;58.47;33.00;;;;;;;31.89;74.72;98102.72;5027263;28;20077;-75
2022/07/28 03:38:58;;;;;;;57.42;31.63;;;;;;;32.10;73.97;98113.41;5028777;28;20049;-75
2022/07/28 03:41:48;;;;;;;50.88;31.95;;;;;;;31.74;75.13;98115.56;5036652;28;20124;-75
2022/07/28 03:44:31;;;;;;;;;;;;;;;32.27;74.23;98107.31;5027241;28;20052;-75
2022/07/28 03:47:22;;;;;;;51.03;30.80;;;;;;;31.74;75.01;98108.03;5051121;28;19947;-75
2022/07/28 03:50:11;;;;;;;64.68;33.17;;;;;;;31.80;75.85;98106.56;5052265;28;20049;-76
2022/07/28 03:52:56;;;;;;;53.17;32.53;;;;;;;32.01;74.86;98094.22;5034653;28;20057;-75
2022/07/28 03:55:49;;;;;;;50.40;31.85;;;;;;;32.28;75.18;98094.25;5039993;28;20045;-74
2022/07/28 03:58:44;;;;;;;54.88;34.03;;;;;;;32.24;74.09;98098.97;5060285;28;20053;-73
2022/07/28 04:01:33;;;;;;;50.30;32.65;;;;;;;32.52;74.13;98106.91;5010562;28;20053;-75
2022/07/28 04:04:22;;;;;;;55.78;33.47;;;;;;;32.27;73.60;98106.53;5027947;28;20053;-75
2022/07/28 04:07:04;;;;;;;52.25;33.08;;;;;;;32.36;73.63;98118.97;5028351;28;20053;-76
2022/07/28 04:09:53;;;;;;;48.05;30.92;;;;;;;32.68;73.09;98115.91;5010182;28;20053;-75
2022/07/28 04:12:47;;;;;;;50.15;31.88;;;;;;;32.75;72.94;98116.00;5027301;28;20729;-75
2022/07/28 04:15:31;;;;;;;53.58;32.42;;;;;;;32.27;73.70;98125.97;5011301;28;20139;-74
2022/07/28 04:18:20;;;;;;;59.20;32.47;;;;;;;32.01;74.92;98116.41;5009261;28;20584;-75
2022/07/28 04:21:09;;;;;;;54.15;32.47;;;;;;;32.28;73.46;98124.81;5009704;28;20532;-75
2022/07/28 04:23:52;;;;;;;52.83;33.30;;;;;;;32.30;73.86;98131.59;5010306;28;20061;-75
2022/07/28 04:26:41;;;;;;;47.95;31.10;;;;;;;32.42;73.69;98127.00;5026251;28;20111;-76
2022/07/28 04:29:24;;;;;;;49.28;31.50;;;;;;;32.73;72.56;98139.75;5023317;28;20073;-75
2022/07/28 04:32:13;;;;;;;59.25;32.83;;;;;;;32.64;73.23;98136.47;5024842;28;20060;-76
2022/07/28 04:34:55;;;;;;;54.70;32.90;;;;;;;32.29;73.89;98135.53;5025237;28;20045;-77
2022/07/28 04:37:45;;;;;;;56.55;33.40;;;;;;;32.42;73.70;98133.34;5024945;28;20099;-77
2022/07/28 04:40:34;;;;;;;57.10;33.40;;;;;;;31.99;74.85;98147.31;5026232;28;20488;-76
2022/07/28 04:43:23;;;;;;;59.90;33.58;;;;;;;32.19;73.64;98138.94;5025784;28;20061;-76
2022/07/28 04:46:18;;;;;;;55.42;32.92;;;;;;;32.43;73.42;98142.47;5026896;28;20562;-77
2022/07/28 04:48:54;;;;;;;54.60;32.13;;;;;;;32.32;73.67;98145.88;5009329;28;20049;-78
2022/07/28 04:51:48;;;;;;;58.63;33.58;;;;;;;32.22;74.68;98140.16;5003317;28;20516;-75
2022/07/28 04:54:37;;;;;;;60.75;33.67;;;;;;;32.27;73.53;98142.63;5022790;28;20056;-77
2022/07/28 04:57:19;;;;;;;56.00;33.60;;;;;;;32.47;73.85;98146.13;5023791;28;20076;-74
2022/07/28 05:00:17;;;;;;;51.67;31.85;;;;;;;32.28;74.00;98147.81;5030342;28;20056;-74
2022/07/28 05:02:57;;;;;;;56.95;32.35;;;;;;;32.26;74.17;98149.38;5036897;28;20041;-72
2022/07/28 05:05:45;;;;;;;49.53;30.30;;;;;;;32.64;72.70;98153.16;5036460;28;20044;-72
2022/07/28 05:08:34;;;;;;;52.47;32.03;;;;;;;32.05;73.71;98150.63;5042245;28;20057;-73
2022/07/28 05:11:23;;;;;;;50.05;30.50;;;;;;;32.39;73.63;98148.00;5035990;28;20111;-70
2022/07/28 05:14:13;;;;;;;48.53;29.40;;;;;;;32.24;73.53;98158.06;5036041;28;20549;-75
2022/07/28 05:16:56;;;;;;;46.47;30.13;;;;;;;32.45;72.64;98154.03;5038021;28;20049;-76
2022/07/28 05:19:45;;;;;;;53.00;30.83;;;;;;;32.53;73.16;98153.75;5026282;28;20065;-71
2022/07/28 05:22:45;;;;;;;50.95;30.63;;;;;;;32.49;72.77;98158.44;5025741;28;20069;-69
2022/07/28 05:25:36;;;;;;;50.45;28.70;;;;;;;32.89;72.63;98165.41;5025649;28;20080;-70
2022/07/28 05:28:18;;;;;;;58.35;29.25;;;;;;;32.65;72.32;98168.63;5025375;28;20068;-70
2022/07/28 05:31:07;;;;;;;49.47;30.08;;;;;;;32.31;73.39;98174.03;5025906;28;20091;-71
2022/07/28 05:33:49;;;;;;;46.60;28.90;;;;;;;32.53;72.66;98162.06;5045001;28;20686;-69
2022/07/28 05:36:38;;;;;;;46.13;28.75;;;;;;;32.89;70.83;98162.63;5025580;28;20076;-69
2022/07/28 05:39:23;;;;;;;49.20;29.77;;;;;;;32.75;71.53;98177.13;5024384;28;20049;-72
2022/07/28 05:42:11;;;;;;;49.65;29.42;;;;;;;32.44;72.99;98186.53;5030948;28;20049;-75
2022/07/28 05:45:07;;;;;;;46.00;28.38;;;;;;;32.46;72.42;98181.41;5028496;28;20119;-76
2022/07/28 05:47:58;;;;;;;49.25;28.50;;;;;;;32.69;72.03;98180.59;5024610;28;20080;-72
2022/07/28 05:50:40;;;;;;;44.88;28.33;;;;;;;32.67;71.84;98185.72;5025398;28;20580;-72
2022/07/28 05:53:30;;;;;;;50.47;30.77;;;;;;;32.63;72.07;98190.44;5044610;28;20056;-74
2022/07/28 05:56:21;;;;;;;57.42;31.42;;;;;;;32.63;71.82;98184.88;5044202;28;20134;-74
2022/07/28 05:59:08;;;;;;;53.35;29.75;;;;;;;32.51;72.42;98197.75;5025868;28;20049;-72
2022/07/28 06:02:03;;;;;;;57.58;31.40;;;;;;;32.46;72.88;98203.63;5037536;28;20114;-74
2022/07/28 06:04:52;;;;;;;52.85;30.38;;;;;;;32.62;72.49;98199.94;5043991;28;20152;-74
2022/07/28 06:07:41;;;;;;;56.53;29.85;;;;;;;32.38;73.10;98202.72;5044139;28;20045;-73
2022/07/28 06:10:57;;;;;;;53.08;30.88;;;;;;;32.62;72.27;98199.94;5043967;28;20064;-75
2022/07/28 06:13:36;;;;;;;61.60;32.88;;;;;;;32.56;72.79;98204.97;5035293;28;20060;-73
2022/07/28 06:16:25;;;;;;;57.97;32.42;;;;;;;32.65;72.41;98199.19;5043836;28;20053;-74
2022/07/28 06:19:14;;;;;;;57.22;30.42;;;;;;;32.83;72.27;98205.81;5044560;28;20234;-75
2022/07/28 06:21:56;;;;;;;59.33;30.52;;;;;;;32.54;72.04;98205.38;5035662;28;20045;-74
2022/07/28 06:24:46;;;;;;;63.45;31.13;;;;;;;32.85;72.93;98200.69;5044263;28;20053;-76
2022/07/28 06:27:27;;;;;;;64.32;31.67;;;;;;;32.91;71.19;98203.94;5043627;28;20106;-77
2022/07/28 06:30:16;;;;;;;55.45;29.80;;;;;;;32.69;71.11;98183.38;5043958;28;20087;-75
2022/07/28 06:32:58;;;;;;;51.22;28.63;;;;;;;32.59;72.42;98187.59;5044296;28;20049;-75
2022/07/28 06:35:47;;;;;;;58.30;29.77;;;;;;;32.71;71.90;98181.00;4694490;28;9999860;-76
2022/07/28 06:38:31;;;;;;;61.78;31.17;;;;;;;32.56;72.40;98182.75;5041894;28;20672;-74
2022/07/28 06:41:20;;;;;;;55.85;29.05;;;;;;;32.74;71.55;98180.28;5024730;28;20522;-74
2022/07/28 06:44:02;;;;;;;58.03;30.88;;;;;;;32.99;70.74;98174.25;5043048;28;20053;-74
2022/07/28 06:46:52;;;;;;;51.83;28.38;;;;;;;33.09;70.35;98173.59;5042074;28;20058;-74
2022/07/28 06:49:35;;;;;;;51.25;29.08;;;;;;;33.13;70.42;98169.72;5023992;28;20081;-71
2022/07/28 06:52:24;;;;;;;48.83;29.88;;;;;;;32.76;72.03;98164.03;5033604;28;20152;-74
2022/07/28 06:55:14;;;;;;;47.53;28.02;;;;;;;33.18;70.02;98170.56;5007197;28;20135;-72
2022/07/28 06:57:57;;;;;;;52.03;30.15;;;;;;;33.37;69.17;98170.41;5006792;28;20134;-73
2022/07/28 07:00:51;;;;;;;44.97;28.70;;;;;;;33.02;70.85;98167.94;5022344;28;20130;-73
2022/07/28 07:03:41;;;;;;;44.05;28.80;;;;;;;33.06;70.48;98163.25;5025304;28;20143;-74
2022/07/28 07:06:30;;;;;;;46.15;29.48;;;;;;;33.17;70.12;98153.06;5008296;28;20069;-78
2022/07/28 07:09:11;;;;;;;46.60;31.10;;;;;;;33.01;70.62;98149.66;5025405;28;20049;-76
2022/07/28 07:12:00;;;;;;;43.35;29.67;;;;;;;33.41;69.82;98167.66;5024266;28;20046;-74
2022/07/28 07:14:42;;;;;;;46.55;29.33;;;;;;;33.43;69.92;98159.72;5032157;28;20051;-76
2022/07/28 07:17:31;;;;;;;49.80;31.40;;;;;;;33.26;70.69;98150.00;4690690;28;10001491;-76
2022/07/28 07:20:13;;;;;;;49.25;31.27;;;;;;;32.98;70.79;98142.91;5026952;28;20053;-75
2022/07/28 07:23:02;;;;;;;46.25;30.08;;;;;;;32.91;71.99;98135.25;5043778;28;20137;-76
2022/07/28 07:25:44;;;;;;;46.42;31.90;;;;;;;33.28;70.59;98131.75;5009175;28;20041;-77
2022/07/28 07:28:33;;;;;;;50.38;33.03;;;;;;;33.05;71.44;98133.84;5027522;28;20377;-75
2022/07/28 07:31:15;;;;;;;46.58;31.92;;;;;;;32.95;70.84;98133.31;5032024;28;20075;-75
2022/07/28 07:34:05;;;;;;;50.50;33.13;;;;;;;33.23;70.38;98123.75;5021421;28;20073;-76
2022/07/28 07:36:47;;;;;;;45.50;29.17;;;;;;;33.38;69.17;98118.34;5010355;28;20120;-76
2022/07/28 07:39:36;;;;;;;50.40;32.08;;;;;;;32.96;70.45;98120.22;5047297;28;20106;-76
2022/07/28 07:42:19;;;;;;;51.30;30.80;;;;;;;33.30;70.11;98115.47;5045860;28;20127;-77
2022/07/28 07:45:08;;;;;;;48.22;30.42;;;;;;;33.40;69.86;98116.81;5047145;28;20048;-75
2022/07/28 07:47:50;;;;;;;47.47;32.00;;;;;;;33.00;70.67;98115.53;5032241;28;20044;-76
2022/07/28 07:50:40;;;;;;;41.80;28.70;;;;;;;33.42;68.99;98114.44;5047646;28;20135;-78
2022/07/28 07:53:23;;;;;;;48.50;30.55;;;;;;;32.98;71.96;98106.75;5048773;28;20049;-77
2022/07/28 07:56:13;;;;;;;47.05;30.55;;;;;;;32.92;72.42;98103.50;5047278;28;20084;-77
2022/07/28 07:58:56;;;;;;;45.60;30.13;;;;;;;33.42;70.15;98103.31;5048443;28;20150;-76
2022/07/28 08:01:54;;;;;;;46.90;30.60;;;;;;;33.71;68.76;98101.63;5038469;28;20049;-76
2022/07/28 08:04:49;;;;;;;44.97;29.92;;;;;;;33.40;69.16;98102.91;5008278;28;20647;-77
2022/07/28 08:07:38;;;;;;;49.60;29.92;;;;;;;33.31;70.21;98080.94;5025035;28;20532;-77
2022/07/28 08:10:27;;;;;;;46.40;31.13;;;;;;;33.39;69.51;98078.25;5026865;28;20061;-78
2022/07/28 08:13:19;;;;;;;47.70;29.65;;;;;;;32.73;71.39;98067.50;5015149;28;20392;-78
2022/07/28 08:16:02;;;;;;;44.97;30.20;;;;;;;32.99;71.07;98065.84;5030238;28;20040;-77
2022/07/28 08:18:52;;;;;;;43.67;29.15;;;;;;;32.84;70.76;98062.09;5049276;28;20060;-78
2022/07/28 08:21:34;;;;;;;42.25;29.17;;;;;;;32.69;71.21;98044.44;5045288;28;20045;-77
2022/07/28 08:24:23;;;;;;;48.00;29.23;;;;;;;32.66;71.38;98056.34;5046372;28;20053;-78
2022/07/28 08:27:12;;;;;;;35.90;22.00;;;;;;;31.36;72.85;98070.09;5045111;28;20134;-78
2022/07/28 08:30:01;;;;;;;41.25;18.90;;;;;;;31.51;71.37;98062.84;5027997;28;20679;-78
2022/07/28 08:32:43;;;;;;;24.35;15.18;;;;;;;31.45;69.74;98051.22;5046884;28;20049;-78
2022/07/28 08:35:43;;;;;;;25.08;13.45;;;;;;;31.19;69.92;98054.72;5032458;28;20122;-77
2022/07/28 08:38:19;;;;;;;22.48;12.82;;;;;;;31.23;69.73;98047.28;5046984;28;20143;-77
2022/07/28 08:41:17;;;;;;;19.85;13.50;;;;;;;31.64;68.79;98036.53;5046646;28;20053;-77
2022/07/28 08:44:02;;;;;;;26.70;15.68;;;;;;;31.42;70.10;98035.34;5046797;28;20053;-77
2022/07/28 08:46:52;;;;;;;28.20;17.20;;;;;;;31.36;70.16;98020.97;5045982;28;20076;-75
2022/07/28 08:49:37;;;;;;;27.80;18.23;;;;;;;31.48;69.86;98013.69;5046136;28;20040;-76
2022/07/28 08:52:38;;;;;;;30.48;17.95;;;;;;;31.78;69.13;98019.34;5046515;28;20057;-78
2022/07/28 08:55:14;;;;;;;28.20;17.27;;;;;;;31.79;69.63;98016.16;5046542;28;20071;-77
2022/07/28 08:58:06;;;;;;;28.45;16.55;;;;;;;31.75;68.76;98003.41;5046281;28;20052;-78
2022/07/28 09:00:48;;;;;;;24.92;15.75;;;;;;;31.76;69.33;98014.16;5046019;28;20049;-77
2022/07/28 09:03:44;;;;;;;27.35;17.63;;;;;;;31.80;69.65;98008.66;5045674;28;20060;-77
2022/07/28 09:06:40;;;;;;;23.85;16.08;;;;;;;32.11;67.77;97990.91;5023709;28;20045;-77
2022/07/28 09:09:32;;;;;;;24.20;15.40;;;;;;;31.88;69.24;97979.03;5025219;28;20057;-76
2022/07/28 09:12:15;;;;;;;26.98;16.42;;;;;;;32.24;68.25;97977.59;5006786;28;20050;-77
2022/07/28 09:15:09;;;;;;;26.73;15.85;;;;;;;32.02;68.28;97972.91;5025847;28;20053;-77
2022/07/28 09:17:51;;;;;;;24.33;15.75;;;;;;;32.17;68.38;97978.28;5026052;28;20147;-77
2022/07/28 09:20:42;;;;;;;25.42;16.05;;;;;;;31.99;69.19;97968.91;5030899;28;20053;-77
2022/07/28 09:23:30;;;;;;;29.80;18.42;;;;;;;32.20;68.15;97954.53;5044890;28;20052;-78
2022/07/28 09:26:23;;;;;;;28.70;17.15;;;;;;;32.16;68.32;97946.16;5030932;28;20411;-78
2022/07/28 09:29:12;;;;;;;24.67;16.70;;;;;;;32.39;68.62;97945.25;5047130;28;20049;-78
2022/07/28 09:31:54;;;;;;;26.80;16.55;;;;;;;32.13;69.04;97946.91;5038744;28;20064;-78
2022/07/28 09:34:51;;;;;;;30.33;18.35;;;;;;;32.53;67.64;97942.63;5029507;28;20423;-76
2022/07/28 09:37:33;;;;;;;25.77;16.38;;;;;;;32.51;68.05;97938.66;5045958;28;20469;-76
2022/07/28 09:40:23;;;;;;;25.88;16.25;;;;;;;32.80;67.46;97944.56;5030139;28;20053;-76
2022/07/28 09:43:05;;;;;;;35.15;17.25;;;;;;;32.64;67.60;97936.47;5045639;28;20041;-78
2022/07/28 09:46:20;;;;;;;32.75;18.83;;;;;;;32.38;67.96;97930.56;5027872;28;20061;-78
2022/07/28 09:49:03;;;;;;;35.00;19.25;;;;;;;32.62;68.37;97919.34;5028994;28;20451;-77
2022/07/28 09:52:06;;;;;;;29.40;19.02;;;;;;;32.71;67.29;97915.09;5029244;28;20048;-76
2022/07/28 09:55:03;;;;;;;27.50;17.17;;;;;;;32.92;67.16;97922.03;5028434;28;20114;-77
2022/07/28 09:57:54;;;;;;;31.00;18.00;;;;;;;32.50;68.16;97920.38;5045113;28;20053;-75
2022/07/28 10:00:37;;;;;;;27.20;17.27;;;;;;;32.74;68.61;97913.53;5046222;28;20056;-77
2022/07/28 10:03:31;;;;;;;26.55;16.92;;;;;;;32.95;67.49;97913.72;5030697;28;20064;-77
2022/07/28 10:06:38;;;;;;;29.60;17.98;;;;;;;32.96;67.52;97920.91;5026187;28;20064;-76
2022/07/28 10:09:26;;;;;;;26.63;17.27;;;;;;;32.84;68.34;97923.16;5025716;28;20049;-76
2022/07/28 10:12:29;;;;;;;32.17;16.52;;;;;;;33.04;67.30;97938.44;5027116;28;20769;-77
2022/07/28 10:18:30;;;;;;;28.15;16.60;;;;;;;32.94;67.92;97930.78;5042642;28;20044;-76
2022/07/28 10:21:21;;;;;;;25.70;16.98;;;;;;;33.18;67.55;97932.25;5042117;28;20045;-77
2022/07/28 10:24:15;;;;;;;28.50;17.55;;;;;;;32.71;67.91;97920.66;5042165;28;20141;-76
2022/07/28 10:27:03;;;;;;;25.23;16.10;;;;;;;33.12;67.32;97919.88;5034758;28;20053;-76
2022/07/28 10:29:52;;;;;;;22.20;15.45;;;;;;;32.81;67.62;97918.34;5031485;28;20053;-75
2022/07/28 10:32:43;;;;;;;22.00;13.05;;;;;;;32.68;67.67;97931.72;5045808;28;20542;-77
2022/07/28 10:35:32;;;;;;;23.30;13.55;;;;;;;32.71;68.28;97928.19;5027958;28;20048;-75
2022/07/28 10:38:36;;;;;;;27.08;15.70;;;;;;;32.67;68.48;97924.56;5007434;28;20044;-77
2022/07/28 10:41:27;;;;;;;29.98;16.77;;;;;;;33.16;67.23;97909.59;5061091;28;20528;-77
2022/07/28 10:44:17;;;;;;;29.20;17.35;;;;;;;33.19;66.33;97908.81;5054008;28;20549;-77
2022/07/28 10:47:06;;;;;;;23.10;15.25;;;;;;;33.30;66.22;97900.56;5069414;28;20068;-76
2022/07/28 10:54:48;;;;;;;30.00;18.05;;;;;;;32.99;66.63;97885.97;4987308;28;20374;-76
2022/07/28 10:57:47;;;;;;;27.05;16.73;;;;;;;33.20;66.85;97873.47;5014192;28;20045;-77
2022/07/28 11:00:52;;;;;;;26.27;17.17;;;;;;;33.37;66.22;97858.91;5028003;28;20053;-77
2022/07/28 11:03:46;;;;;;;26.60;17.40;;;;;;;33.73;65.71;97857.16;5029088;28;20687;-77
2022/07/28 11:06:45;;;;;;;30.42;18.88;;;;;;;32.94;67.23;97847.41;5026258;28;20046;-76
2022/07/28 11:09:40;;;;;;;28.73;18.95;;;;;;;33.17;66.99;97852.78;5002961;28;20064;-77
2022/07/28 11:12:52;;;;;;;34.42;19.77;;;;;;;33.46;66.47;97848.22;4999184;28;20129;-77
2022/07/28 11:15:42;;;;;;;;;;;;;;;33.00;67.13;97842.28;5011165;28;20421;-77
2022/07/28 11:19:02;;;;;;;36.47;20.33;;;;;;;33.25;67.89;97845.28;5006794;28;20381;-78
2022/07/28 11:22:06;;;;;;;;;;;;;;;33.40;67.39;97835.06;5024434;28;20107;-77
2022/07/28 11:25:04;;;;;;;28.15;19.05;;;;;;;33.59;66.47;97839.53;5012384;28;19960;-77
2022/07/28 11:27:59;;;;;;;27.07;18.60;;;;;;;33.76;65.98;97843.66;5011445;28;20057;-78
2022/07/28 11:30:50;;;;;;;27.60;19.10;;;;;;;33.55;67.05;97839.53;5034941;28;20059;-78
2022/07/28 11:34:02;;;;;;;29.00;17.48;;;;;;;33.66;67.35;97834.06;5030932;28;20041;-78
2022/07/28 11:37:04;;;;;;;28.95;19.13;;;;;;;33.51;67.05;97847.06;5033789;28;20049;-77
2022/07/28 11:39:41;;;;;;;30.52;19.77;;;;;;;33.59;66.04;97845.91;5031917;28;20053;-78
2022/07/28 11:42:37;;;;;;;29.20;19.52;;;;;;;33.63;65.71;97840.34;5029141;28;20045;-78
2022/07/28 11:45:25;;;;;;;31.25;19.63;;;;;;;33.64;66.88;97842.78;5028264;28;20496;-77
2022/07/28 11:48:22;;;;;;;28.65;19.20;;;;;;;33.24;67.41;97854.81;5006033;28;20056;-77
2022/07/28 11:51:10;;;;;;;31.20;20.65;;;;;;;33.61;66.48;97846.34;5018203;28;20057;-77
2022/07/28 11:54:00;;;;;;;32.85;21.00;;;;;;;32.93;68.08;97848.59;5015593;28;20049;-76
2022/07/28 11:56:50;;;;;;;32.50;22.05;;;;;;;33.29;67.15;97852.47;5019805;28;20049;-77
2022/07/28 11:59:44;;;;;;;36.45;23.48;;;;;;;33.19;68.14;97857.97;5003728;28;20140;-77
2022/07/28 12:02:35;;;;;;;33.97;22.48;;;;;;;33.03;68.47;97852.66;5027434;28;20428;-77
2022/07/28 12:05:24;;;;;;;35.58;22.38;;;;;;;33.15;68.04;97838.47;5017683;28;20049;-76
2022/07/28 12:08:14;;;;;;;36.75;23.45;;;;;;;33.01;69.01;97844.69;5027094;28;20051;-76
2022/07/28 12:11:04;;;;;;;36.05;21.73;;;;;;;33.48;66.95;97845.84;4348722;28;9999913;-76
2022/07/28 12:13:46;;;;;;;38.13;23.65;;;;;;;32.94;69.01;97847.41;5043544;28;20059;-75
2022/07/28 12:16:44;;;;;;;37.03;23.23;;;;;;;33.13;68.14;97851.97;5027260;28;20049;-77
2022/07/28 12:19:21;;;;;;;38.47;24.77;;;;;;;33.08;68.76;97860.66;5013006;28;20682;-77
2022/07/28 12:22:12;;;;;;;39.25;24.02;;;;;;;33.41;67.79;97856.94;5048232;28;20049;-76
2022/07/28 12:25:05;;;;;;;38.10;25.38;;;;;;;33.16;68.47;97856.75;5049972;28;20045;-76
2022/07/28 12:27:53;;;;;;;41.63;25.83;;;;;;;33.33;68.61;97867.22;5032202;28;20080;-75
2022/07/28 12:30:43;;;;;;;40.03;26.10;;;;;;;33.46;67.29;97869.66;5046250;28;20111;-76
2022/07/28 12:33:26;;;;;;;40.78;26.65;;;;;;;33.35;67.68;97866.84;5027706;28;20053;-76
2022/07/28 12:36:17;;;;;;;43.25;25.98;;;;;;;33.21;67.74;97867.53;5046102;28;20092;-75
2022/07/28 12:39:05;;;;;;;43.53;26.80;;;;;;;33.18;68.60;97882.19;5029585;28;20056;-75
2022/07/28 12:41:53;;;;;;;37.95;25.33;;;;;;;33.22;67.76;97876.66;5029821;28;20052;-75
2022/07/28 12:44:43;;;;;;;42.47;28.17;;;;;;;32.64;69.85;97884.47;5053089;28;20044;-75
2022/07/28 12:47:33;;;;;;;43.20;27.13;;;;;;;33.31;68.16;97879.91;5049306;28;20140;-72
2022/07/28 12:50:22;;;;;;;41.75;26.10;;;;;;;32.74;70.44;97880.19;5047428;28;20052;-75
2022/07/28 12:53:15;;;;;;;45.38;28.05;;;;;;;32.86;69.96;97885.44;5011008;28;20111;-76
2022/07/28 12:56:04;;;;;;;52.53;28.95;;;;;;;32.36;71.68;97884.91;5042152;28;20435;-73
2022/07/28 12:58:55;;;;;;;43.67;27.90;;;;;;;32.42;71.03;97883.41;5036134;28;20045;-71
2022/07/28 13:01:54;;;;;;;49.38;29.65;;;;;;;32.44;71.41;97894.13;5025087;28;20140;-74
2022/07/28 13:04:46;;;;;;;53.10;29.40;;;;;;;32.49;71.87;97902.13;5019221;28;20054;-72
2022/07/28 13:07:35;;;;;;;44.70;28.77;;;;;;;32.63;71.25;97912.63;5038164;28;20527;-74
2022/07/28 13:10:26;;;;;;;51.50;29.70;;;;;;;32.57;70.82;97915.72;5041303;28;20080;-74
2022/07/28 13:13:08;;;;;;;47.20;29.75;;;;;;;32.61;71.31;97923.31;5028121;28;20496;-72